sensor_id;sensor_type;location;lat;lon;timestamp;temperature;humidity
15705;DHT22;7952;48.396;12.806;2023-06-22T00:00:51;22.80;48.40
15705;DHT22;7952;48.396;12.806;2023-06-22T00:03:21;22.80;48.50
15705;DHT22;7952;48.396;12.806;2023-06-22T00:05:48;22.80;48.60
15705;DHT22;7952;48.396;12.806;2023-06-22T00:08:14;22.80;48.70
15705;DHT22;7952;48.396;12.806;2023-06-22T00:10:41;22.80;48.70
15705;DHT22;7952;48.396;12.806;2023-06-22T00:13:08;22.70;48.60
15705;DHT22;7952;48.396;12.806;2023-06-22T00:15:34;22.70;48.60
15705;DHT22;7952;48.396;12.806;2023-06-22T00:18:00;22.70;48.60
15705;DHT22;7952;48.396;12.806;2023-06-22T00:20:26;22.70;48.70
15705;DHT22;7952;48.396;12.806;2023-06-22T00:22:54;22.70;48.70
15705;DHT22;7952;48.396;12.806;2023-06-22T00:25:20;22.70;48.70
15705;DHT22;7952;48.396;12.806;2023-06-22T00:27:46;22.70;48.80
15705;DHT22;7952;48.396;12.806;2023-06-22T00:30:12;22.70;48.80
15705;DHT22;7952;48.396;12.806;2023-06-22T00:32:37;22.70;48.80
15705;DHT22;7952;48.396;12.806;2023-06-22T00:35:03;22.60;48.80
15705;DHT22;7952;48.396;12.806;2023-06-22T00:37:29;22.60;49.40
15705;DHT22;7952;48.396;12.806;2023-06-22T00:39:56;22.60;48.80
15705;DHT22;7952;48.396;12.806;2023-06-22T00:42:22;22.60;48.80
15705;DHT22;7952;48.396;12.806;2023-06-22T00:44:48;22.60;48.90
15705;DHT22;7952;48.396;12.806;2023-06-22T00:47:16;22.50;48.90
15705;DHT22;7952;48.396;12.806;2023-06-22T00:49:43;22.50;48.90
15705;DHT22;7952;48.396;12.806;2023-06-22T00:52:10;22.40;49.00
15705;DHT22;7952;48.396;12.806;2023-06-22T00:54:42;22.40;49.00
15705;DHT22;7952;48.396;12.806;2023-06-22T00:57:14;22.30;49.10
15705;DHT22;7952;48.396;12.806;2023-06-22T00:59:43;22.20;49.10
15705;DHT22;7952;48.396;12.806;2023-06-22T01:02:09;22.10;49.20
15705;DHT22;7952;48.396;12.806;2023-06-22T01:04:36;22.00;49.30
15705;DHT22;7952;48.396;12.806;2023-06-22T01:07:39;22.00;49.60
15705;DHT22;7952;48.396;12.806;2023-06-22T01:10:13;21.90;49.80
15705;DHT22;7952;48.396;12.806;2023-06-22T01:12:48;22.00;50.10
15705;DHT22;7952;48.396;12.806;2023-06-22T01:15:25;21.90;50.20
15705;DHT22;7952;48.396;12.806;2023-06-22T01:17:53;22.00;50.50
15705;DHT22;7952;48.396;12.806;2023-06-22T01:20:21;22.00;50.60
15705;DHT22;7952;48.396;12.806;2023-06-22T01:26:35;22.00;50.80
15705;DHT22;7952;48.396;12.806;2023-06-22T01:28:43;22.00;50.90
15705;DHT22;7952;48.396;12.806;2023-06-22T01:31:22;21.90;50.80
15705;DHT22;7952;48.396;12.806;2023-06-22T01:33:52;21.90;50.90
15705;DHT22;7952;48.396;12.806;2023-06-22T01:36:19;21.90;50.80
15705;DHT22;7952;48.396;12.806;2023-06-22T01:38:47;21.90;50.80
15705;DHT22;7952;48.396;12.806;2023-06-22T01:41:13;21.90;50.80
15705;DHT22;7952;48.396;12.806;2023-06-22T01:43:39;21.90;50.90
15705;DHT22;7952;48.396;12.806;2023-06-22T01:46:05;21.80;50.80
15705;DHT22;7952;48.396;12.806;2023-06-22T01:48:32;21.80;50.80
15705;DHT22;7952;48.396;12.806;2023-06-22T01:50:58;21.80;50.90
15705;DHT22;7952;48.396;12.806;2023-06-22T01:53:25;21.80;50.90
15705;DHT22;7952;48.396;12.806;2023-06-22T01:55:51;21.70;50.80
15705;DHT22;7952;48.396;12.806;2023-06-22T01:58:17;21.70;50.90
15705;DHT22;7952;48.396;12.806;2023-06-22T02:01:11;21.70;50.90
15705;DHT22;7952;48.396;12.806;2023-06-22T02:03:49;21.70;50.80
15705;DHT22;7952;48.396;12.806;2023-06-22T02:06:24;21.70;50.80
15705;DHT22;7952;48.396;12.806;2023-06-22T02:08:55;21.70;50.90
15705;DHT22;7952;48.396;12.806;2023-06-22T02:11:22;21.70;51.00
15705;DHT22;7952;48.396;12.806;2023-06-22T02:13:49;21.60;51.00
15705;DHT22;7952;48.396;12.806;2023-06-22T02:16:15;21.60;50.90
15705;DHT22;7952;48.396;12.806;2023-06-22T02:18:52;21.60;50.90
15705;DHT22;7952;48.396;12.806;2023-06-22T02:21:21;21.60;50.90
15705;DHT22;7952;48.396;12.806;2023-06-22T02:23:47;21.50;50.90
15705;DHT22;7952;48.396;12.806;2023-06-22T02:26:13;21.50;51.00
15705;DHT22;7952;48.396;12.806;2023-06-22T02:28:39;21.50;51.10
15705;DHT22;7952;48.396;12.806;2023-06-22T02:31:04;21.50;51.10
15705;DHT22;7952;48.396;12.806;2023-06-22T02:33:30;21.40;51.00
15705;DHT22;7952;48.396;12.806;2023-06-22T02:35:56;21.40;51.10
15705;DHT22;7952;48.396;12.806;2023-06-22T02:38:22;21.40;51.10
15705;DHT22;7952;48.396;12.806;2023-06-22T02:40:50;21.40;51.20
15705;DHT22;7952;48.396;12.806;2023-06-22T02:43:15;21.30;51.10
15705;DHT22;7952;48.396;12.806;2023-06-22T02:45:44;21.30;51.20
15705;DHT22;7952;48.396;12.806;2023-06-22T02:48:10;21.30;51.20
15705;DHT22;7952;48.396;12.806;2023-06-22T02:50:36;21.30;51.30
15705;DHT22;7952;48.396;12.806;2023-06-22T02:53:02;21.20;51.20
15705;DHT22;7952;48.396;12.806;2023-06-22T02:55:28;21.20;51.30
15705;DHT22;7952;48.396;12.806;2023-06-22T02:57:54;21.20;51.30
15705;DHT22;7952;48.396;12.806;2023-06-22T03:00:20;21.10;51.20
15705;DHT22;7952;48.396;12.806;2023-06-22T03:02:47;21.10;51.30
15705;DHT22;7952;48.396;12.806;2023-06-22T03:05:16;21.10;51.30
15705;DHT22;7952;48.396;12.806;2023-06-22T03:07:44;21.10;51.30
15705;DHT22;7952;48.396;12.806;2023-06-22T03:10:11;21.10;51.40
15705;DHT22;7952;48.396;12.806;2023-06-22T03:12:38;21.00;51.30
15705;DHT22;7952;48.396;12.806;2023-06-22T03:15:13;21.00;51.40
15705;DHT22;7952;48.396;12.806;2023-06-22T03:17:39;21.00;51.30
15705;DHT22;7952;48.396;12.806;2023-06-22T03:20:07;21.00;51.40
15705;DHT22;7952;48.396;12.806;2023-06-22T03:22:41;21.00;51.30
15705;DHT22;7952;48.396;12.806;2023-06-22T03:25:08;21.00;51.30
15705;DHT22;7952;48.396;12.806;2023-06-22T03:27:42;21.00;51.40
15705;DHT22;7952;48.396;12.806;2023-06-22T03:30:12;21.00;51.50
15705;DHT22;7952;48.396;12.806;2023-06-22T03:32:38;21.00;51.60
15705;DHT22;7952;48.396;12.806;2023-06-22T03:35:04;21.00;51.70
15705;DHT22;7952;48.396;12.806;2023-06-22T03:37:40;20.90;51.70
15705;DHT22;7952;48.396;12.806;2023-06-22T03:40:07;21.00;52.00
15705;DHT22;7952;48.396;12.806;2023-06-22T03:42:36;21.00;52.20
15705;DHT22;7952;48.396;12.806;2023-06-22T03:45:03;21.00;52.30
15705;DHT22;7952;48.396;12.806;2023-06-22T03:47:29;21.10;52.30
15705;DHT22;7952;48.396;12.806;2023-06-22T03:49:55;21.20;52.40
15705;DHT22;7952;48.396;12.806;2023-06-22T03:52:21;21.30;52.50
15705;DHT22;7952;48.396;12.806;2023-06-22T03:54:48;21.40;52.50
15705;DHT22;7952;48.396;12.806;2023-06-22T03:57:13;21.50;53.10
15705;DHT22;7952;48.396;12.806;2023-06-22T03:59:39;21.50;52.40
15705;DHT22;7952;48.396;12.806;2023-06-22T04:02:05;21.70;52.50
15705;DHT22;7952;48.396;12.806;2023-06-22T04:04:31;21.70;52.40
15705;DHT22;7952;48.396;12.806;2023-06-22T04:06:56;21.90;52.60
15705;DHT22;7952;48.396;12.806;2023-06-22T04:09:25;22.00;52.80
15705;DHT22;7952;48.396;12.806;2023-06-22T04:11:51;22.20;52.70
15705;DHT22;7952;48.396;12.806;2023-06-22T04:14:17;22.30;52.70
15705;DHT22;7952;48.396;12.806;2023-06-22T04:16:43;22.50;52.70
15705;DHT22;7952;48.396;12.806;2023-06-22T04:19:09;22.70;52.60
15705;DHT22;7952;48.396;12.806;2023-06-22T04:21:39;22.80;52.50
15705;DHT22;7952;48.396;12.806;2023-06-22T04:24:06;23.00;52.30
15705;DHT22;7952;48.396;12.806;2023-06-22T04:26:32;23.20;52.10
15705;DHT22;7952;48.396;12.806;2023-06-22T04:29:03;23.40;52.10
15705;DHT22;7952;48.396;12.806;2023-06-22T04:31:34;23.60;51.90
15705;DHT22;7952;48.396;12.806;2023-06-22T04:34:06;23.80;51.90
15705;DHT22;7952;48.396;12.806;2023-06-22T04:36:38;24.00;51.80
15705;DHT22;7952;48.396;12.806;2023-06-22T04:39:09;24.20;51.70
15705;DHT22;7952;48.396;12.806;2023-06-22T04:41:40;24.40;51.50
15705;DHT22;7952;48.396;12.806;2023-06-22T04:44:18;24.60;51.40
15705;DHT22;7952;48.396;12.806;2023-06-22T04:46:56;24.80;51.40
15705;DHT22;7952;48.396;12.806;2023-06-22T04:49:27;25.00;51.20
15705;DHT22;7952;48.396;12.806;2023-06-22T04:51:58;25.20;51.00
15705;DHT22;7952;48.396;12.806;2023-06-22T04:54:25;25.40;50.90
15705;DHT22;7952;48.396;12.806;2023-06-22T04:56:50;25.60;50.80
15705;DHT22;7952;48.396;12.806;2023-06-22T04:59:23;25.80;50.70
15705;DHT22;7952;48.396;12.806;2023-06-22T05:02:11;26.00;50.60
15705;DHT22;7952;48.396;12.806;2023-06-22T05:04:37;26.20;50.40
15705;DHT22;7952;48.396;12.806;2023-06-22T05:07:04;26.40;50.20
15705;DHT22;7952;48.396;12.806;2023-06-22T05:09:30;26.60;50.10
15705;DHT22;7952;48.396;12.806;2023-06-22T05:11:55;26.80;50.00
15705;DHT22;7952;48.396;12.806;2023-06-22T05:14:29;26.90;49.80
15705;DHT22;7952;48.396;12.806;2023-06-22T05:16:55;27.10;50.30
15705;DHT22;7952;48.396;12.806;2023-06-22T05:19:24;27.30;49.50
15705;DHT22;7952;48.396;12.806;2023-06-22T05:21:50;27.60;49.40
15705;DHT22;7952;48.396;12.806;2023-06-22T05:24:16;27.80;49.20
15705;DHT22;7952;48.396;12.806;2023-06-22T05:26:42;28.10;49.10
15705;DHT22;7952;48.396;12.806;2023-06-22T05:29:07;28.40;48.80
15705;DHT22;7952;48.396;12.806;2023-06-22T05:31:33;28.70;48.60
15705;DHT22;7952;48.396;12.806;2023-06-22T05:33:59;28.90;48.30
15705;DHT22;7952;48.396;12.806;2023-06-22T05:36:26;29.20;48.10
15705;DHT22;7952;48.396;12.806;2023-06-22T05:38:52;29.30;47.70
15705;DHT22;7952;48.396;12.806;2023-06-22T05:41:18;29.50;47.50
15705;DHT22;7952;48.396;12.806;2023-06-22T05:43:47;29.70;47.40
15705;DHT22;7952;48.396;12.806;2023-06-22T05:46:13;29.80;47.20
15705;DHT22;7952;48.396;12.806;2023-06-22T05:48:39;30.00;47.10
15705;DHT22;7952;48.396;12.806;2023-06-22T05:51:08;30.20;47.00
15705;DHT22;7952;48.396;12.806;2023-06-22T05:53:33;30.30;46.80
15705;DHT22;7952;48.396;12.806;2023-06-22T05:55:59;30.40;46.60
15705;DHT22;7952;48.396;12.806;2023-06-22T05:58:25;30.60;46.50
15705;DHT22;7952;48.396;12.806;2023-06-22T06:00:50;30.70;46.40
15705;DHT22;7952;48.396;12.806;2023-06-22T06:03:16;30.80;46.30
15705;DHT22;7952;48.396;12.806;2023-06-22T06:05:42;31.00;46.10
15705;DHT22;7952;48.396;12.806;2023-06-22T06:08:08;31.10;45.70
15705;DHT22;7952;48.396;12.806;2023-06-22T06:10:36;31.10;45.50
15705;DHT22;7952;48.396;12.806;2023-06-22T06:13:02;31.20;45.50
15705;DHT22;7952;48.396;12.806;2023-06-22T06:15:30;31.20;45.40
15705;DHT22;7952;48.396;12.806;2023-06-22T06:17:55;31.30;45.30
15705;DHT22;7952;48.396;12.806;2023-06-22T06:20:22;31.40;45.10
15705;DHT22;7952;48.396;12.806;2023-06-22T06:22:49;31.40;45.00
15705;DHT22;7952;48.396;12.806;2023-06-22T06:25:15;31.30;44.90
15705;DHT22;7952;48.396;12.806;2023-06-22T06:27:45;31.20;44.90
15705;DHT22;7952;48.396;12.806;2023-06-22T06:30:12;31.10;44.90
15705;DHT22;7952;48.396;12.806;2023-06-22T06:32:38;31.10;44.80
15705;DHT22;7952;48.396;12.806;2023-06-22T06:35:09;31.00;44.70
15705;DHT22;7952;48.396;12.806;2023-06-22T06:37:39;30.90;44.80
15705;DHT22;7952;48.396;12.806;2023-06-22T06:40:06;30.90;44.90
15705;DHT22;7952;48.396;12.806;2023-06-22T06:42:42;30.90;44.90
15705;DHT22;7952;48.396;12.806;2023-06-22T06:45:23;30.90;44.80
15705;DHT22;7952;48.396;12.806;2023-06-22T06:47:50;30.90;44.80
15705;DHT22;7952;48.396;12.806;2023-06-22T06:50:16;31.00;44.90
15705;DHT22;7952;48.396;12.806;2023-06-22T06:52:42;31.10;44.70
15705;DHT22;7952;48.396;12.806;2023-06-22T06:55:09;31.40;44.40
15705;DHT22;7952;48.396;12.806;2023-06-22T06:57:38;31.50;44.10
15705;DHT22;7952;48.396;12.806;2023-06-22T07:00:11;31.70;43.90
15705;DHT22;7952;48.396;12.806;2023-06-22T07:02:42;32.00;43.70
15705;DHT22;7952;48.396;12.806;2023-06-22T07:05:10;32.20;43.30
15705;DHT22;7952;48.396;12.806;2023-06-22T07:07:36;32.30;43.00
15705;DHT22;7952;48.396;12.806;2023-06-22T07:10:02;32.40;42.80
15705;DHT22;7952;48.396;12.806;2023-06-22T07:12:28;32.50;42.60
15705;DHT22;7952;48.396;12.806;2023-06-22T07:15:13;32.60;42.20
15705;DHT22;7952;48.396;12.806;2023-06-22T07:17:39;32.50;41.90
15705;DHT22;7952;48.396;12.806;2023-06-22T07:20:08;32.40;42.40
15705;DHT22;7952;48.396;12.806;2023-06-22T07:22:44;32.30;42.00
15705;DHT22;7952;48.396;12.806;2023-06-22T07:25:10;32.30;42.00
15705;DHT22;7952;48.396;12.806;2023-06-22T07:27:43;32.30;42.10
15705;DHT22;7952;48.396;12.806;2023-06-22T07:30:10;32.40;41.90
15705;DHT22;7952;48.396;12.806;2023-06-22T07:32:36;32.40;41.70
15705;DHT22;7952;48.396;12.806;2023-06-22T07:35:02;32.30;41.40
15705;DHT22;7952;48.396;12.806;2023-06-22T07:37:28;32.30;41.50
15705;DHT22;7952;48.396;12.806;2023-06-22T07:39:55;32.10;41.40
15705;DHT22;7952;48.396;12.806;2023-06-22T07:42:25;32.10;41.60
15705;DHT22;7952;48.396;12.806;2023-06-22T07:44:51;32.10;41.80
15705;DHT22;7952;48.396;12.806;2023-06-22T07:47:17;32.10;41.60
15705;DHT22;7952;48.396;12.806;2023-06-22T07:49:48;32.20;41.40
15705;DHT22;7952;48.396;12.806;2023-06-22T07:52:14;32.20;41.20
15705;DHT22;7952;48.396;12.806;2023-06-22T07:54:40;32.10;41.20
15705;DHT22;7952;48.396;12.806;2023-06-22T07:57:06;32.20;41.20
15705;DHT22;7952;48.396;12.806;2023-06-22T07:59:31;32.20;41.10
15705;DHT22;7952;48.396;12.806;2023-06-22T08:01:57;32.10;41.10
15705;DHT22;7952;48.396;12.806;2023-06-22T08:04:23;32.10;41.20
15705;DHT22;7952;48.396;12.806;2023-06-22T08:06:49;32.10;41.00
15705;DHT22;7952;48.396;12.806;2023-06-22T08:09:15;32.00;41.10
15705;DHT22;7952;48.396;12.806;2023-06-22T08:11:40;32.00;41.10
15705;DHT22;7952;48.396;12.806;2023-06-22T08:14:06;32.00;41.20
15705;DHT22;7952;48.396;12.806;2023-06-22T08:16:32;32.00;41.20
15705;DHT22;7952;48.396;12.806;2023-06-22T08:18:57;32.00;41.20
15705;DHT22;7952;48.396;12.806;2023-06-22T08:21:23;31.90;41.10
15705;DHT22;7952;48.396;12.806;2023-06-22T08:23:49;31.90;41.30
15705;DHT22;7952;48.396;12.806;2023-06-22T08:26:15;31.90;41.40
15705;DHT22;7952;48.396;12.806;2023-06-22T08:28:40;31.90;41.40
15705;DHT22;7952;48.396;12.806;2023-06-22T08:31:09;31.80;41.30
15705;DHT22;7952;48.396;12.806;2023-06-22T08:33:37;31.70;41.40
15705;DHT22;7952;48.396;12.806;2023-06-22T08:36:03;31.70;41.50
15705;DHT22;7952;48.396;12.806;2023-06-22T08:38:31;31.60;41.60
15705;DHT22;7952;48.396;12.806;2023-06-22T08:40:57;31.50;41.50
15705;DHT22;7952;48.396;12.806;2023-06-22T08:43:23;31.50;41.60
15705;DHT22;7952;48.396;12.806;2023-06-22T08:45:48;31.50;41.50
15705;DHT22;7952;48.396;12.806;2023-06-22T08:48:14;31.50;41.50
15705;DHT22;7952;48.396;12.806;2023-06-22T08:50:40;31.50;41.60
15705;DHT22;7952;48.396;12.806;2023-06-22T08:53:06;31.50;41.50
15705;DHT22;7952;48.396;12.806;2023-06-22T08:55:31;31.50;41.40
15705;DHT22;7952;48.396;12.806;2023-06-22T08:57:57;31.50;41.50
15705;DHT22;7952;48.396;12.806;2023-06-22T09:00:23;31.50;41.50
15705;DHT22;7952;48.396;12.806;2023-06-22T09:02:49;31.50;41.50
15705;DHT22;7952;48.396;12.806;2023-06-22T09:05:15;31.60;41.40
15705;DHT22;7952;48.396;12.806;2023-06-22T09:07:41;31.70;41.30
15705;DHT22;7952;48.396;12.806;2023-06-22T09:10:07;31.70;41.30
15705;DHT22;7952;48.396;12.806;2023-06-22T09:12:36;31.80;41.30
15705;DHT22;7952;48.396;12.806;2023-06-22T09:15:03;31.80;41.20
15705;DHT22;7952;48.396;12.806;2023-06-22T09:17:29;31.90;41.20
15705;DHT22;7952;48.396;12.806;2023-06-22T09:19:55;32.00;41.20
15705;DHT22;7952;48.396;12.806;2023-06-22T09:22:21;32.00;41.20
15705;DHT22;7952;48.396;12.806;2023-06-22T09:24:46;32.10;41.10
15705;DHT22;7952;48.396;12.806;2023-06-22T09:27:12;32.20;41.10
15705;DHT22;7952;48.396;12.806;2023-06-22T09:29:38;32.30;41.00
15705;DHT22;7952;48.396;12.806;2023-06-22T09:32:04;32.30;41.00
15705;DHT22;7952;48.396;12.806;2023-06-22T09:34:30;32.40;41.00
15705;DHT22;7952;48.396;12.806;2023-06-22T09:36:57;32.50;40.90
15705;DHT22;7952;48.396;12.806;2023-06-22T09:39:22;32.60;40.70
15705;DHT22;7952;48.396;12.806;2023-06-22T09:41:51;32.60;40.70
15705;DHT22;7952;48.396;12.806;2023-06-22T09:44:17;32.70;40.60
15705;DHT22;7952;48.396;12.806;2023-06-22T09:46:42;32.70;40.60
15705;DHT22;7952;48.396;12.806;2023-06-22T09:49:09;32.80;40.50
15705;DHT22;7952;48.396;12.806;2023-06-22T09:51:34;32.80;40.20
15705;DHT22;7952;48.396;12.806;2023-06-22T09:54:00;32.80;40.20
15705;DHT22;7952;48.396;12.806;2023-06-22T09:56:26;32.80;40.20
15705;DHT22;7952;48.396;12.806;2023-06-22T09:58:54;32.90;40.20
15705;DHT22;7952;48.396;12.806;2023-06-22T10:01:19;33.00;40.20
15705;DHT22;7952;48.396;12.806;2023-06-22T10:03:46;33.00;40.00
15705;DHT22;7952;48.396;12.806;2023-06-22T10:06:12;33.00;39.90
15705;DHT22;7952;48.396;12.806;2023-06-22T10:08:37;32.90;39.90
15705;DHT22;7952;48.396;12.806;2023-06-22T10:11:04;32.90;40.00
15705;DHT22;7952;48.396;12.806;2023-06-22T10:13:33;32.90;40.10
15705;DHT22;7952;48.396;12.806;2023-06-22T10:15:59;32.80;40.00
15705;DHT22;7952;48.396;12.806;2023-06-22T10:18:25;32.80;40.10
15705;DHT22;7952;48.396;12.806;2023-06-22T10:20:51;32.80;40.20
15705;DHT22;7952;48.396;12.806;2023-06-22T10:23:18;32.90;40.20
15705;DHT22;7952;48.396;12.806;2023-06-22T10:25:44;32.90;40.20
15705;DHT22;7952;48.396;12.806;2023-06-22T10:28:10;33.00;40.20
15705;DHT22;7952;48.396;12.806;2023-06-22T10:30:35;33.00;40.10
15705;DHT22;7952;48.396;12.806;2023-06-22T10:33:01;33.00;40.00
15705;DHT22;7952;48.396;12.806;2023-06-22T10:35:27;33.10;40.00
15705;DHT22;7952;48.396;12.806;2023-06-22T10:37:52;33.10;40.10
15705;DHT22;7952;48.396;12.806;2023-06-22T10:40:20;33.20;39.90
15705;DHT22;7952;48.396;12.806;2023-06-22T10:42:46;33.20;39.90
15705;DHT22;7952;48.396;12.806;2023-06-22T10:45:11;33.30;39.70
15705;DHT22;7952;48.396;12.806;2023-06-22T10:47:37;33.30;39.80
15705;DHT22;7952;48.396;12.806;2023-06-22T10:50:04;33.40;39.80
15705;DHT22;7952;48.396;12.806;2023-06-22T10:52:30;33.50;39.80
15705;DHT22;7952;48.396;12.806;2023-06-22T10:54:55;33.50;39.70
15705;DHT22;7952;48.396;12.806;2023-06-22T10:57:22;33.60;39.50
15705;DHT22;7952;48.396;12.806;2023-06-22T10:59:47;33.70;39.40
15705;DHT22;7952;48.396;12.806;2023-06-22T11:02:13;33.70;39.40
15705;DHT22;7952;48.396;12.806;2023-06-22T11:04:39;33.80;39.40
15705;DHT22;7952;48.396;12.806;2023-06-22T11:07:05;33.80;39.30
15705;DHT22;7952;48.396;12.806;2023-06-22T11:09:30;33.90;39.20
15705;DHT22;7952;48.396;12.806;2023-06-22T11:11:57;34.00;39.20
15705;DHT22;7952;48.396;12.806;2023-06-22T11:14:24;34.10;39.10
15705;DHT22;7952;48.396;12.806;2023-06-22T11:16:50;34.10;39.00
15705;DHT22;7952;48.396;12.806;2023-06-22T11:19:16;34.10;38.90
15705;DHT22;7952;48.396;12.806;2023-06-22T11:21:42;34.20;39.10
15705;DHT22;7952;48.396;12.806;2023-06-22T11:24:08;34.20;38.90
15705;DHT22;7952;48.396;12.806;2023-06-22T11:26:33;34.20;38.90
15705;DHT22;7952;48.396;12.806;2023-06-22T11:29:00;34.30;38.90
15705;DHT22;7952;48.396;12.806;2023-06-22T11:31:25;34.30;38.70
15705;DHT22;7952;48.396;12.806;2023-06-22T11:33:51;34.30;38.80
15705;DHT22;7952;48.396;12.806;2023-06-22T11:36:18;34.30;38.80
15705;DHT22;7952;48.396;12.806;2023-06-22T11:38:44;34.30;38.80
15705;DHT22;7952;48.396;12.806;2023-06-22T11:41:10;34.40;38.70
15705;DHT22;7952;48.396;12.806;2023-06-22T11:43:36;34.50;38.80
15705;DHT22;7952;48.396;12.806;2023-06-22T11:46:03;34.50;38.60
15705;DHT22;7952;48.396;12.806;2023-06-22T11:48:29;34.50;38.50
15705;DHT22;7952;48.396;12.806;2023-06-22T11:50:55;34.60;38.40
15705;DHT22;7952;48.396;12.806;2023-06-22T11:53:25;34.60;38.40
15705;DHT22;7952;48.396;12.806;2023-06-22T11:55:51;34.70;38.30
15705;DHT22;7952;48.396;12.806;2023-06-22T11:58:19;34.70;38.30
15705;DHT22;7952;48.396;12.806;2023-06-22T12:00:45;34.80;38.30
15705;DHT22;7952;48.396;12.806;2023-06-22T12:03:11;34.80;38.20
15705;DHT22;7952;48.396;12.806;2023-06-22T12:05:38;34.80;38.20
15705;DHT22;7952;48.396;12.806;2023-06-22T12:08:04;34.80;38.20
15705;DHT22;7952;48.396;12.806;2023-06-22T12:10:30;34.90;38.30
15705;DHT22;7952;48.396;12.806;2023-06-22T12:12:58;34.90;38.20
15705;DHT22;7952;48.396;12.806;2023-06-22T12:15:28;35.00;38.20
15705;DHT22;7952;48.396;12.806;2023-06-22T12:17:54;35.00;38.10
15705;DHT22;7952;48.396;12.806;2023-06-22T12:20:19;35.10;38.00
15705;DHT22;7952;48.396;12.806;2023-06-22T12:22:45;35.10;38.00
15705;DHT22;7952;48.396;12.806;2023-06-22T12:25:11;35.20;38.10
15705;DHT22;7952;48.396;12.806;2023-06-22T12:27:37;35.30;38.00
15705;DHT22;7952;48.396;12.806;2023-06-22T12:30:04;35.30;37.90
15705;DHT22;7952;48.396;12.806;2023-06-22T12:32:30;35.30;37.80
15705;DHT22;7952;48.396;12.806;2023-06-22T12:34:56;35.20;37.80
15705;DHT22;7952;48.396;12.806;2023-06-22T12:37:23;35.10;37.80
15705;DHT22;7952;48.396;12.806;2023-06-22T12:39:48;35.10;37.90
15705;DHT22;7952;48.396;12.806;2023-06-22T12:42:15;35.00;38.00
15705;DHT22;7952;48.396;12.806;2023-06-22T12:44:41;34.90;38.10
15705;DHT22;7952;48.396;12.806;2023-06-22T12:47:07;34.90;38.10
15705;DHT22;7952;48.396;12.806;2023-06-22T12:49:36;34.90;38.10
15705;DHT22;7952;48.396;12.806;2023-06-22T12:52:02;34.80;38.00
15705;DHT22;7952;48.396;12.806;2023-06-22T12:54:29;34.80;38.10
15705;DHT22;7952;48.396;12.806;2023-06-22T12:56:55;34.70;38.00
15705;DHT22;7952;48.396;12.806;2023-06-22T12:59:21;34.70;38.00
15705;DHT22;7952;48.396;12.806;2023-06-22T13:01:47;34.80;38.10
15705;DHT22;7952;48.396;12.806;2023-06-22T13:04:13;34.80;37.90
15705;DHT22;7952;48.396;12.806;2023-06-22T13:06:43;34.80;37.90
15705;DHT22;7952;48.396;12.806;2023-06-22T13:09:13;34.90;37.90
15705;DHT22;7952;48.396;12.806;2023-06-22T13:11:39;34.90;37.80
15705;DHT22;7952;48.396;12.806;2023-06-22T13:14:04;34.90;37.70
15705;DHT22;7952;48.396;12.806;2023-06-22T13:16:30;35.00;37.80
15705;DHT22;7952;48.396;12.806;2023-06-22T13:18:56;35.10;37.80
15705;DHT22;7952;48.396;12.806;2023-06-22T13:21:21;35.10;37.60
15705;DHT22;7952;48.396;12.806;2023-06-22T13:23:47;35.20;37.70
15705;DHT22;7952;48.396;12.806;2023-06-22T13:26:13;35.20;37.90
15705;DHT22;7952;48.396;12.806;2023-06-22T13:28:38;35.20;37.40
15705;DHT22;7952;48.396;12.806;2023-06-22T13:31:04;35.20;37.30
15705;DHT22;7952;48.396;12.806;2023-06-22T13:33:30;35.20;37.30
15705;DHT22;7952;48.396;12.806;2023-06-22T13:35:56;35.20;37.20
15705;DHT22;7952;48.396;12.806;2023-06-22T13:38:22;35.20;37.20
15705;DHT22;7952;48.396;12.806;2023-06-22T13:40:48;35.20;37.30
15705;DHT22;7952;48.396;12.806;2023-06-22T13:43:14;35.30;37.00
15705;DHT22;7952;48.396;12.806;2023-06-22T13:45:41;35.30;37.00
15705;DHT22;7952;48.396;12.806;2023-06-22T13:48:07;35.30;36.90
15705;DHT22;7952;48.396;12.806;2023-06-22T13:50:33;35.30;36.90
15705;DHT22;7952;48.396;12.806;2023-06-22T13:52:59;35.30;36.90
15705;DHT22;7952;48.396;12.806;2023-06-22T13:55:24;35.30;36.90
15705;DHT22;7952;48.396;12.806;2023-06-22T13:57:50;35.30;37.60
15705;DHT22;7952;48.396;12.806;2023-06-22T14:00:17;35.30;37.00
15705;DHT22;7952;48.396;12.806;2023-06-22T14:02:43;35.20;37.00
15705;DHT22;7952;48.396;12.806;2023-06-22T14:05:09;35.20;37.10
15705;DHT22;7952;48.396;12.806;2023-06-22T14:07:35;35.00;37.10
15705;DHT22;7952;48.396;12.806;2023-06-22T14:10:01;35.00;37.20
15705;DHT22;7952;48.396;12.806;2023-06-22T14:12:27;34.90;37.30
15705;DHT22;7952;48.396;12.806;2023-06-22T14:14:52;35.00;37.40
15705;DHT22;7952;48.396;12.806;2023-06-22T14:17:18;34.90;37.30
15705;DHT22;7952;48.396;12.806;2023-06-22T14:19:49;34.90;37.40
15705;DHT22;7952;48.396;12.806;2023-06-22T14:22:15;34.90;37.40
15705;DHT22;7952;48.396;12.806;2023-06-22T14:24:41;35.00;37.40
15705;DHT22;7952;48.396;12.806;2023-06-22T14:27:07;35.00;37.30
15705;DHT22;7952;48.396;12.806;2023-06-22T14:29:34;35.10;37.40
15705;DHT22;7952;48.396;12.806;2023-06-22T14:32:00;35.20;37.30
15705;DHT22;7952;48.396;12.806;2023-06-22T14:34:26;35.30;37.20
15705;DHT22;7952;48.396;12.806;2023-06-22T14:36:51;35.40;37.20
15705;DHT22;7952;48.396;12.806;2023-06-22T14:39:17;35.40;37.10
15705;DHT22;7952;48.396;12.806;2023-06-22T14:41:43;35.50;37.00
15705;DHT22;7952;48.396;12.806;2023-06-22T14:44:08;35.50;36.90
15705;DHT22;7952;48.396;12.806;2023-06-22T14:46:35;35.50;37.00
15705;DHT22;7952;48.396;12.806;2023-06-22T14:49:01;35.40;37.00
15705;DHT22;7952;48.396;12.806;2023-06-22T14:51:26;35.40;37.00
15705;DHT22;7952;48.396;12.806;2023-06-22T14:53:52;35.30;37.00
15705;DHT22;7952;48.396;12.806;2023-06-22T14:56:18;35.20;37.10
15705;DHT22;7952;48.396;12.806;2023-06-22T14:58:44;35.10;37.80
15705;DHT22;7952;48.396;12.806;2023-06-22T15:01:12;35.00;37.30
15705;DHT22;7952;48.396;12.806;2023-06-22T15:03:38;35.00;37.40
15705;DHT22;7952;48.396;12.806;2023-06-22T15:06:04;35.00;37.50
15705;DHT22;7952;48.396;12.806;2023-06-22T15:08:30;34.90;37.50
15705;DHT22;7952;48.396;12.806;2023-06-22T15:10:58;34.90;37.50
15705;DHT22;7952;48.396;12.806;2023-06-22T15:13:24;34.90;37.50
15705;DHT22;7952;48.396;12.806;2023-06-22T15:15:50;34.90;37.50
15705;DHT22;7952;48.396;12.806;2023-06-22T15:18:16;34.90;37.60
15705;DHT22;7952;48.396;12.806;2023-06-22T15:20:43;34.80;37.60
15705;DHT22;7952;48.396;12.806;2023-06-22T15:23:13;34.80;37.70
15705;DHT22;7952;48.396;12.806;2023-06-22T15:25:39;34.80;37.70
15705;DHT22;7952;48.396;12.806;2023-06-22T15:28:04;34.90;37.70
15705;DHT22;7952;48.396;12.806;2023-06-22T15:30:30;34.90;37.70
15705;DHT22;7952;48.396;12.806;2023-06-22T15:32:57;34.90;37.60